Time;durP1;ratioP1;P1;durP2;ratioP2;P2;SDS_P1;SDS_P2;PMS_P1;PMS_P2;Temp;Humidity;BMP_temperature;BMP_pressure;BME280_temperature;BME280_humidity;BME280_pressure;Samples;Min_cycle;Max_cycle;Signal;HPM_P1;HPM_P2
2022/07/31 00:02:22;;;;;;;3.03;2.80;;;19.50;99.00;;;;;;6144118;28;20240;-60
2022/07/31 00:05:25;;;;;;;2.73;2.50;;;19.40;99.00;;;;;;6140736;28;20246;-60
2022/07/31 00:08:28;;;;;;;5.50;3.30;;;19.40;99.20;;;;;;6131826;29;20223;-61
2022/07/31 00:11:32;;;;;;;3.70;3.40;;;19.30;99.30;;;;;;6131580;29;20223;-61
2022/07/31 00:14:36;;;;;;;3.73;2.93;;;19.30;99.40;;;;;;6131889;29;20227;-60
2022/07/31 00:17:40;;;;;;;4.80;4.20;;;19.30;99.40;;;;;;6138188;29;20220;-60
2022/07/31 00:20:43;;;;;;;4.17;3.77;;;19.30;99.60;;;;;;6133281;28;20238;-60
2022/07/31 00:23:47;;;;;;;3.70;3.40;;;19.20;99.70;;;;;;6155983;28;20519;-60
2022/07/31 00:26:50;;;;;;;3.87;3.17;;;19.20;99.80;;;;;;6155504;28;20218;-60
2022/07/31 00:29:56;;;;;;;3.73;2.83;;;19.20;99.80;;;;;;6155601;28;20313;-60
2022/07/31 00:32:59;;;;;;;5.20;3.20;;;19.30;99.90;;;;;;6155421;28;20232;-60
2022/07/31 00:36:02;;;;;;;5.17;2.80;;;19.40;99.90;;;;;;6156074;28;20239;-60
2022/07/31 00:39:05;;;;;;;8.33;4.70;;;19.40;99.90;;;;;;6155682;28;20238;-60
2022/07/31 00:42:17;;;;;;;3.70;3.40;;;19.30;99.90;;;;;;6154938;28;20235;-60
2022/07/31 00:45:23;;;;;;;3.70;2.80;;;19.30;99.90;;;;;;6155140;28;20231;-60
2022/07/31 00:48:31;;;;;;;3.67;3.47;;;19.30;99.90;;;;;;6155535;28;20238;-60
2022/07/31 00:51:35;;;;;;;3.30;3.10;;;19.20;99.90;;;;;;6154875;28;20695;-60
2022/07/31 00:54:39;;;;;;;3.37;3.10;;;19.00;99.90;;;;;;6154638;28;20231;-60
2022/07/31 00:57:42;;;;;;;3.77;3.57;;;18.80;99.90;;;;;;6154894;28;20231;-60
2022/07/31 01:00:47;;;;;;;3.97;3.67;;;18.70;99.90;;;;;;6152052;28;20224;-60
2022/07/31 01:03:50;;;;;;;5.80;3.97;;;18.70;99.90;;;;;;6151567;28;20235;-60
2022/07/31 01:06:54;;;;;;;3.43;3.13;;;18.60;99.90;;;;;;6154525;28;20609;-60
2022/07/31 01:09:59;;;;;;;3.47;3.27;;;18.70;99.90;;;;;;6154923;28;20239;-60
2022/07/31 01:13:07;;;;;;;3.50;3.13;;;18.70;99.90;;;;;;6154723;28;20570;-60
2022/07/31 01:16:14;;;;;;;3.80;3.10;;;18.70;99.90;;;;;;6154721;28;20694;-60
2022/07/31 01:19:24;;;;;;;4.80;3.50;;;18.70;99.90;;;;;;6154636;28;20238;-60
2022/07/31 01:23:21;;;;;;;5.67;3.80;;;18.80;99.90;;;;;;6145363;28;20236;-60
2022/07/31 01:26:37;;;;;;;4.27;3.70;;;18.80;99.90;;;;;;6152361;28;20254;-60
2022/07/31 01:29:45;;;;;;;3.73;3.43;;;18.70;99.90;;;;;;6154318;28;20250;-60
2022/07/31 01:32:50;;;;;;;7.70;3.17;;;18.70;99.90;;;;;;6154802;28;20246;-60
2022/07/31 01:35:57;;;;;;;3.47;3.17;;;18.70;99.90;;;;;;6155958;28;20208;-60
2022/07/31 01:39:02;;;;;;;4.80;3.70;;;18.60;99.90;;;;;;6154672;28;20195;-60
2022/07/31 01:42:08;;;;;;;3.80;3.50;;;18.50;99.90;;;;;;6150933;28;20235;-60
2022/07/31 01:45:14;;;;;;;3.50;3.23;;;18.60;99.90;;;;;;6145408;28;20683;-60
2022/07/31 01:48:18;;;;;;;6.77;4.43;;;18.60;99.90;;;;;;6154492;28;20223;-60
2022/07/31 01:51:22;;;;;;;4.30;3.77;;;18.60;99.90;;;;;;6153906;28;20777;-60
2022/07/31 01:54:27;;;;;;;6.07;3.70;;;18.50;99.90;;;;;;6148187;29;20226;-60
2022/07/31 01:57:32;;;;;;;4.27;3.77;;;18.60;99.90;;;;;;6141400;29;20675;-60
2022/07/31 02:00:37;;;;;;;3.63;3.33;;;18.60;99.90;;;;;;6137712;29;20730;-60
2022/07/31 02:03:42;;;;;;;5.50;4.10;;;18.50;99.90;;;;;;6139220;29;20663;-60
2022/07/31 02:06:48;;;;;;;3.40;3.20;;;18.50;99.90;;;;;;6137909;28;20804;-60
2022/07/31 02:09:53;;;;;;;4.43;4.00;;;18.40;99.90;;;;;;6138710;28;20234;-60
2022/07/31 02:13:02;;;;;;;4.23;3.93;;;18.30;99.90;;;;;;6140745;28;20242;-60
2022/07/31 02:16:07;;;;;;;4.93;4.30;;;18.30;99.90;;;;;;6140158;28;20231;-61
2022/07/31 02:19:12;;;;;;;4.10;3.80;;;18.20;99.90;;;;;;6129803;29;20252;-60
2022/07/31 02:22:15;;;;;;;15.23;4.13;;;18.20;99.90;;;;;;6129279;29;20255;-60
2022/07/31 02:25:19;;;;;;;4.07;3.73;;;18.20;99.90;;;;;;6120909;29;20240;-60
2022/07/31 02:28:23;;;;;;;4.57;4.00;;;18.20;99.90;;;;;;6129692;28;20480;-60
2022/07/31 02:31:30;;;;;;;3.80;3.40;;;18.10;99.90;;;;;;6129553;29;20246;-60
2022/07/31 02:34:35;;;;;;;4.23;3.80;;;18.20;99.90;;;;;;6129498;29;20239;-60
2022/07/31 02:37:39;;;;;;;3.57;3.27;;;18.20;99.90;;;;;;6129531;29;20240;-60
2022/07/31 02:40:43;;;;;;;4.57;4.27;;;18.20;99.90;;;;;;6128909;29;20479;-60
2022/07/31 02:43:47;;;;;;;4.33;3.90;;;18.20;99.90;;;;;;6129397;29;20246;-60
2022/07/31 02:46:52;;;;;;;5.17;3.90;;;18.10;99.90;;;;;;6129453;29;20475;-60
2022/07/31 02:49:56;;;;;;;5.00;4.13;;;18.00;99.90;;;;;;6129364;29;20227;-60
2022/07/31 02:53:00;;;;;;;3.83;3.53;;;17.80;99.90;;;;;;6128858;29;20668;-60
2022/07/31 02:56:04;;;;;;;4.30;4.00;;;17.80;99.90;;;;;;6128986;29;20530;-60
2022/07/31 02:59:07;;;;;;;4.73;4.33;;;17.70;99.90;;;;;;6129235;29;20486;-60
2022/07/31 03:02:12;;;;;;;4.07;3.77;;;17.80;99.90;;;;;;6129168;29;20485;-60
2022/07/31 03:05:15;;;;;;;5.50;4.10;;;17.70;99.90;;;;;;6129019;29;20480;-60
2022/07/31 03:08:18;;;;;;;4.70;4.40;;;17.60;99.90;;;;;;6128761;29;20238;-60
2022/07/31 03:11:22;;;;;;;5.33;5.00;;;17.60;99.90;;;;;;6128813;29;20479;-62
2022/07/31 03:14:26;;;;;;;5.47;4.97;;;17.70;99.90;;;;;;6128801;29;20247;-61
2022/07/31 03:17:37;;;;;;;4.70;4.30;;;17.80;99.90;;;;;;6128967;29;20480;-61
2022/07/31 03:20:43;;;;;;;3.70;3.50;;;17.80;99.90;;;;;;6128789;29;20480;-61
2022/07/31 03:23:48;;;;;;;4.93;4.63;;;17.80;99.90;;;;;;6128925;28;20463;-61
2022/07/31 03:26:51;;;;;;;4.97;4.57;;;17.80;99.90;;;;;;6128874;29;20655;-61
2022/07/31 03:29:54;;;;;;;5.83;5.33;;;17.80;99.90;;;;;;6133518;29;20483;-61
2022/07/31 03:33:01;;;;;;;5.40;4.70;;;17.70;99.90;;;;;;6133223;29;20478;-61
2022/07/31 03:36:05;;;;;;;5.50;4.70;;;17.70;99.90;;;;;;6133477;28;20478;-61
2022/07/31 03:39:08;;;;;;;4.73;4.33;;;17.70;99.90;;;;;;6133076;29;20463;-61
2022/07/31 03:42:12;;;;;;;4.80;4.40;;;17.70;99.90;;;;;;6133032;28;20491;-61
2022/07/31 03:45:21;;;;;;;4.53;3.50;;;17.70;99.90;;;;;;6133126;29;20555;-61
2022/07/31 03:48:26;;;;;;;4.70;4.37;;;17.70;99.90;;;;;;6133315;28;20475;-58
2022/07/31 03:51:31;;;;;;;5.07;4.70;;;17.70;99.90;;;;;;6132831;29;20236;-60
2022/07/31 03:54:34;;;;;;;4.57;4.27;;;17.80;99.90;;;;;;6133373;29;20480;-60
2022/07/31 03:57:38;;;;;;;4.40;4.10;;;17.80;99.90;;;;;;6132625;29;20479;-60
2022/07/31 04:00:44;;;;;;;4.37;4.07;;;17.80;99.90;;;;;;6132127;29;21121;-60
2022/07/31 04:03:57;;;;;;;5.40;4.57;;;17.90;99.90;;;;;;6132148;29;20519;-60
2022/07/31 04:07:01;;;;;;;6.43;4.30;;;18.00;99.90;;;;;;6132085;29;20472;-60
2022/07/31 04:10:04;;;;;;;5.50;4.90;;;18.00;99.90;;;;;;6132318;29;20622;-64
2022/07/31 04:13:07;;;;;;;5.03;4.63;;;18.00;99.90;;;;;;6132069;29;20491;-60
2022/07/31 04:16:10;;;;;;;5.67;4.77;;;18.10;99.90;;;;;;6132619;29;20228;-60
2022/07/31 04:19:15;;;;;;;5.30;4.90;;;18.20;99.90;;;;;;6132139;29;20581;-60
2022/07/31 04:22:18;;;;;;;4.57;4.27;;;18.30;99.90;;;;;;6132226;29;20254;-60
2022/07/31 04:25:21;;;;;;;4.97;4.50;;;18.40;99.90;;;;;;6131762;29;20246;-60
2022/07/31 04:28:25;;;;;;;5.43;4.93;;;18.60;99.90;;;;;;6132199;29;20228;-60
2022/07/31 04:31:28;;;;;;;6.90;4.60;;;18.60;99.90;;;;;;6131660;29;20232;-60
2022/07/31 04:34:33;;;;;;;7.27;4.60;;;18.70;99.90;;;;;;6132126;29;20235;-60
2022/07/31 04:37:36;;;;;;;6.50;5.60;;;18.80;99.90;;;;;;6131883;29;20235;-60
2022/07/31 04:40:50;;;;;;;5.97;5.47;;;18.90;99.90;;;;;;6130726;29;20227;-60
2022/07/31 04:43:53;;;;;;;5.00;4.60;;;18.80;99.90;;;;;;6131111;29;20236;-60
2022/07/31 04:46:59;;;;;;;5.40;4.73;;;18.90;99.90;;;;;;6131768;29;20227;-60
2022/07/31 04:50:04;;;;;;;5.40;4.90;;;19.00;99.90;;;;;;6131530;29;20262;-60
2022/07/31 04:53:07;;;;;;;5.80;5.40;;;19.20;99.90;;;;;;6131633;29;20236;-60
2022/07/31 04:59:32;;;;;;;5.30;4.80;;;19.50;99.90;;;;;;6131253;29;20235;-60
2022/07/31 05:02:55;;;;;;;6.70;5.80;;;19.70;99.90;;;;;;6130897;28;20240;-60
2022/07/31 05:06:09;;;;;;;5.57;5.07;;;19.90;99.90;;;;;;6131750;29;20219;-60
2022/07/31 05:09:15;;;;;;;4.57;4.27;;;20.10;99.90;;;;;;6130271;29;20576;-60
2022/07/31 05:12:21;;;;;;;5.53;5.13;;;20.20;99.90;;;;;;6131466;29;20251;-60
2022/07/31 05:15:24;;;;;;;5.10;4.13;;;20.50;99.90;;;;;;6130830;29;20240;-60
2022/07/31 05:18:27;;;;;;;5.67;5.17;;;20.60;99.90;;;;;;6131193;29;20228;-61
2022/07/31 05:21:32;;;;;;;4.97;4.57;;;20.70;99.90;;;;;;6130365;29;20227;-61
2022/07/31 05:24:50;;;;;;;5.40;5.00;;;20.90;99.90;;;;;;6130430;29;20570;-61
2022/07/31 05:27:53;;;;;;;5.43;4.93;;;21.10;99.90;;;;;;6130450;29;20581;-61
2022/07/31 05:30:56;;;;;;;5.20;4.67;;;21.30;99.90;;;;;;6130822;29;20231;-61
2022/07/31 05:34:00;;;;;;;5.17;4.77;;;21.50;99.90;;;;;;6122390;28;20586;-60
2022/07/31 05:37:04;;;;;;;5.37;4.97;;;21.60;99.90;;;;;;6131366;29;20232;-60
2022/07/31 05:40:09;;;;;;;5.53;5.03;;;21.70;99.70;;;;;;6129360;29;20623;-60
2022/07/31 05:43:12;;;;;;;5.30;4.90;;;21.70;99.40;;;;;;6128367;29;20627;-60
2022/07/31 05:46:16;;;;;;;5.30;5.00;;;21.70;99.70;;;;;;6128991;29;20227;-60
2022/07/31 05:49:20;;;;;;;5.43;5.03;;;21.80;99.90;;;;;;6129702;29;20680;-60
2022/07/31 05:52:25;;;;;;;6.40;5.80;;;22.10;99.60;;;;;;6129366;29;20362;-60
2022/07/31 05:55:28;;;;;;;6.53;4.90;;;22.50;98.00;;;;;;6130152;29;20239;-60
2022/07/31 05:58:32;;;;;;;6.80;6.20;;;22.80;97.10;;;;;;6130274;29;20551;-60
2022/07/31 06:01:35;;;;;;;5.10;4.70;;;23.10;96.10;;;;;;6129508;29;20236;-60
2022/07/31 06:04:39;;;;;;;5.23;4.93;;;23.00;95.80;;;;;;6129983;29;20235;-60
2022/07/31 06:07:45;;;;;;;6.47;5.83;;;22.80;95.90;;;;;;6129438;29;20536;-60
2022/07/31 06:10:54;;;;;;;5.33;4.93;;;22.50;96.00;;;;;;6129373;29;20652;-60
2022/07/31 06:13:57;;;;;;;5.93;5.27;;;22.40;96.10;;;;;;6129677;29;20235;-60
2022/07/31 06:17:04;;;;;;;7.30;5.53;;;22.30;96.20;;;;;;6129776;29;20246;-60
2022/07/31 06:20:08;;;;;;;5.50;5.10;;;22.30;96.20;;;;;;6129571;29;20250;-60
2022/07/31 06:23:13;;;;;;;5.87;5.47;;;22.30;96.40;;;;;;6129065;29;20235;-60
2022/07/31 06:26:29;;;;;;;5.53;5.13;;;22.10;95.70;;;;;;6129545;29;20244;-61
2022/07/31 06:29:33;;;;;;;5.47;5.07;;;22.10;96.50;;;;;;6129168;29;20235;-60
2022/07/31 06:32:44;;;;;;;6.17;5.47;;;22.10;96.10;;;;;;6153659;28;20242;-61
2022/07/31 06:35:47;;;;;;;6.17;5.30;;;22.10;96.00;;;;;;6177075;28;20222;-60
2022/07/31 06:38:51;;;;;;;5.70;5.17;;;22.10;96.10;;;;;;6176909;28;20211;-60
2022/07/31 06:41:55;;;;;;;5.80;5.30;;;21.90;96.10;;;;;;6162760;28;20242;-60
2022/07/31 06:44:58;;;;;;;5.70;5.40;;;22.00;96.40;;;;;;6174784;28;20324;-60
2022/07/31 06:48:01;;;;;;;6.23;5.67;;;22.00;96.40;;;;;;6174323;28;20211;-60
2022/07/31 06:51:04;;;;;;;6.20;5.70;;;22.10;96.20;;;;;;6163800;28;20249;-60
2022/07/31 06:54:29;;;;;;;6.10;5.70;;;22.20;96.10;;;;;;6159182;28;20231;-60
2022/07/31 06:57:32;;;;;;;5.60;5.10;;;22.10;96.10;;;;;;6163955;28;20242;-60
2022/07/31 07:00:35;;;;;;;5.70;5.30;;;22.10;96.30;;;;;;6165167;28;20218;-60
2022/07/31 07:03:38;;;;;;;6.77;5.97;;;22.20;96.40;;;;;;6167057;28;20230;-60
2022/07/31 07:06:41;;;;;;;6.10;5.53;;;22.20;95.90;;;;;;6170935;28;20556;-60
2022/07/31 07:09:46;;;;;;;5.70;5.20;;;22.30;95.90;;;;;;6169507;28;20223;-60
2022/07/31 07:12:49;;;;;;;5.60;5.10;;;22.70;96.10;;;;;;6167991;28;20234;-60
2022/07/31 07:15:53;;;;;;;5.33;5.03;;;23.60;94.20;;;;;;6163974;28;20246;-61
2022/07/31 07:18:56;;;;;;;5.67;5.27;;;23.90;93.40;;;;;;6157241;28;20238;-60
2022/07/31 07:21:59;;;;;;;4.97;4.57;;;25.00;92.50;;;;;;6156976;28;20234;-61
2022/07/31 07:25:04;;;;;;;5.60;5.20;;;25.40;92.00;;;;;;6156750;28;20314;-60
2022/07/31 07:28:08;;;;;;;5.73;5.17;;;25.20;91.90;;;;;;6156810;28;20673;-60
2022/07/31 07:31:17;;;;;;;4.73;4.43;;;25.40;92.20;;;;;;6156351;28;20329;-60
2022/07/31 07:34:20;;;;;;;5.07;4.73;;;25.50;91.10;;;;;;6156329;28;20645;-61
2022/07/31 07:37:23;;;;;;;7.17;5.70;;;26.50;89.90;;;;;;6156089;28;20231;-61
2022/07/31 07:40:28;;;;;;;5.37;4.97;;;27.80;85.70;;;;;;6147620;28;20230;-61
2022/07/31 07:43:31;;;;;;;7.10;4.73;;;29.30;78.10;;;;;;6156771;28;20234;-61
2022/07/31 07:46:34;;;;;;;5.33;4.73;;;29.40;75.20;;;;;;6156899;28;20245;-61
2022/07/31 07:49:38;;;;;;;6.90;5.47;;;29.10;73.90;;;;;;6156738;28;20556;-61
2022/07/31 07:52:41;;;;;;;4.53;4.13;;;28.90;72.40;;;;;;6156150;28;20238;-61
2022/07/31 07:55:47;;;;;;;5.73;5.23;;;28.10;70.70;;;;;;6156519;28;20238;-61
2022/07/31 07:58:50;;;;;;;4.33;3.80;;;27.60;72.00;;;;;;6156643;28;20241;-61
2022/07/31 08:01:53;;;;;;;5.00;4.47;;;27.10;71.30;;;;;;6156620;28;20230;-61
2022/07/31 08:04:56;;;;;;;4.53;4.10;;;27.50;65.60;;;;;;6156653;28;20237;-61
2022/07/31 08:08:00;;;;;;;5.27;4.80;;;28.40;64.10;;;;;;6155747;28;20313;-61
2022/07/31 08:11:04;;;;;;;4.40;3.83;;;28.50;60.10;;;;;;6156037;28;20230;-60
2022/07/31 08:14:07;;;;;;;4.13;3.83;;;29.50;57.70;;;;;;6154784;28;20234;-61
2022/07/31 08:17:12;;;;;;;3.30;3.10;;;29.20;56.40;;;;;;6155979;28;20241;-62
2022/07/31 08:20:15;;;;;;;4.50;4.10;;;28.40;56.80;;;;;;6156285;28;20550;-62
2022/07/31 08:23:18;;;;;;;4.03;3.73;;;27.70;57.90;;;;;;6155641;28;20587;-63
2022/07/31 08:26:23;;;;;;;3.83;3.53;;;28.20;59.60;;;;;;6156020;28;20230;-62
2022/07/31 08:29:30;;;;;;;3.95;3.58;;;31.20;54.40;;;;;;6156055;28;20227;-62
2022/07/31 08:32:38;;;;;;;3.78;3.35;;;33.80;49.90;;;;;;6155861;28;20230;-62
2022/07/31 08:35:42;;;;;;;3.80;3.50;;;34.50;45.20;;;;;;6155983;28;20249;-62
2022/07/31 08:38:52;;;;;;;2.80;2.63;;;34.70;44.50;;;;;;6155390;28;20238;-62
2022/07/31 08:41:56;;;;;;;4.38;3.40;;;34.40;43.40;;;;;;6155082;28;20241;-62
2022/07/31 08:45:00;;;;;;;3.95;3.58;;;34.30;42.80;;;;;;6155294;28;20233;-62
2022/07/31 08:48:05;;;;;;;4.18;3.78;;;34.10;42.50;;;;;;6155526;28;20206;-62
2022/07/31 08:51:11;;;;;;;3.90;3.60;;;33.80;43.10;;;;;;6154645;28;20230;-62
2022/07/31 08:54:15;;;;;;;3.75;3.45;;;33.40;43.20;;;;;;6158323;28;20231;-61
2022/07/31 08:57:20;;;;;;;3.63;3.33;;;33.20;43.10;;;;;;6166590;28;20253;-61
2022/07/31 09:00:23;;;;;;;4.55;3.78;;;32.90;44.40;;;;;;6167634;28;20234;-61
2022/07/31 09:03:26;;;;;;;4.63;3.63;;;32.30;44.10;;;;;;6164936;28;20242;-62
2022/07/31 09:06:30;;;;;;;4.03;3.72;;;31.90;44.00;;;;;;6162914;28;20562;-62
2022/07/31 09:09:33;;;;;;;3.22;3.03;;;31.50;44.90;;;;;;6166456;28;20221;-62
2022/07/31 09:12:55;;;;;;;4.38;3.85;;;31.10;46.00;;;;;;6166356;28;20218;-62
2022/07/31 09:15:59;;;;;;;4.80;3.58;;;30.70;46.70;;;;;;6175498;28;20230;-62
2022/07/31 09:19:04;;;;;;;4.82;4.43;;;30.50;47.00;;;;;;6166448;28;20336;-62
2022/07/31 09:22:29;;;;;;;5.07;4.68;;;30.30;47.00;;;;;;6165483;28;20238;-61
2022/07/31 09:25:33;;;;;;;5.65;5.22;;;30.00;47.30;;;;;;6162115;28;20234;-62
2022/07/31 09:28:39;;;;;;;4.35;4.07;;;29.80;46.70;;;;;;6161438;28;20237;-62
2022/07/31 09:31:42;;;;;;;4.40;4.00;;;29.80;47.90;;;;;;6154586;28;20230;-61
2022/07/31 09:34:46;;;;;;;4.83;4.13;;;29.80;48.00;;;;;;6154023;28;20238;-62
2022/07/31 09:37:50;;;;;;;4.50;3.25;;;29.70;48.40;;;;;;6153997;28;20239;-62
2022/07/31 09:40:53;;;;;;;4.00;3.70;;;29.70;48.40;;;;;;6153802;28;20241;-63
2022/07/31 09:44:03;;;;;;;3.47;3.27;;;29.70;48.30;;;;;;6149624;28;20567;-61
2022/07/31 09:47:23;;;;;;;3.70;3.40;;;29.80;48.50;;;;;;6154131;28;20257;-61
2022/07/31 09:50:26;;;;;;;4.73;4.33;;;29.90;48.70;;;;;;6154087;28;20318;-61
2022/07/31 09:53:39;;;;;;;4.53;4.10;;;30.00;48.10;;;;;;6153297;28;20726;-62
2022/07/31 09:56:48;;;;;;;5.10;4.10;;;30.00;47.70;;;;;;6153967;28;20245;-63
2022/07/31 09:59:53;;;;;;;6.50;4.27;;;30.00;47.80;;;;;;6153889;28;20226;-61
2022/07/31 10:02:57;;;;;;;3.80;3.40;;;30.10;47.60;;;;;;6153670;28;20223;-65
2022/07/31 10:06:01;;;;;;;4.83;3.70;;;30.00;47.00;;;;;;6153113;28;20206;-61
2022/07/31 10:09:06;;;;;;;4.50;4.10;;;29.90;47.60;;;;;;6153189;28;20543;-62
2022/07/31 10:12:13;;;;;;;3.90;3.50;;;30.00;47.00;;;;;;6153282;28;20673;-62
2022/07/31 10:15:20;;;;;;;4.75;4.10;;;30.00;46.80;;;;;;6163517;28;20312;-63
2022/07/31 10:18:27;;;;;;;4.20;3.75;;;29.90;46.50;;;;;;6159191;28;20560;-62
2022/07/31 10:21:41;;;;;;;4.97;4.53;;;29.90;46.00;;;;;;6162221;28;20241;-62
2022/07/31 10:24:48;;;;;;;3.80;3.50;;;29.70;45.10;;;;;;6165477;28;20226;-62
2022/07/31 10:27:52;;;;;;;3.90;3.60;;;29.60;45.60;;;;;;6166337;28;20317;-62
2022/07/31 10:30:57;;;;;;;3.60;3.30;;;29.60;45.00;;;;;;6164748;28;20222;-62
2022/07/31 10:34:01;;;;;;;3.80;2.93;;;29.40;46.00;;;;;;6164009;28;20678;-61
2022/07/31 10:37:11;;;;;;;3.43;3.13;;;29.70;45.40;;;;;;6152573;28;20692;-62
2022/07/31 10:40:26;;;;;;;3.50;3.10;;;29.80;44.80;;;;;;6154919;28;20234;-62
2022/07/31 10:43:41;;;;;;;3.00;2.80;;;29.90;44.90;;;;;;6154107;28;20241;-62
2022/07/31 10:46:46;;;;;;;2.95;2.67;;;30.10;44.70;;;;;;6150289;28;20245;-62
2022/07/31 10:49:49;;;;;;;3.47;3.00;;;30.10;44.20;;;;;;6153015;28;20234;-63
2022/07/31 10:52:53;;;;;;;4.35;3.35;;;30.00;43.60;;;;;;6152756;28;20662;-62
2022/07/31 10:56:03;;;;;;;3.07;2.77;;;30.00;43.40;;;;;;6153074;28;20227;-62
2022/07/31 10:59:06;;;;;;;3.37;2.90;;;30.00;43.80;;;;;;6152698;28;20241;-63
2022/07/31 11:02:14;;;;;;;5.10;2.77;;;30.10;43.70;;;;;;6165616;28;20233;-62
2022/07/31 11:05:21;;;;;;;2.97;2.78;;;30.20;43.10;;;;;;6157569;28;20222;-62
2022/07/31 11:08:25;;;;;;;3.17;2.55;;;30.30;43.10;;;;;;6155700;28;20226;-62
2022/07/31 11:11:32;;;;;;;2.97;2.67;;;30.50;42.50;;;;;;6158670;28;20228;-62
2022/07/31 11:14:38;;;;;;;2.75;2.50;;;30.50;43.10;;;;;;6166483;28;20242;-62
2022/07/31 11:17:42;;;;;;;2.72;2.58;;;30.50;42.00;;;;;;6167524;28;20237;-62
2022/07/31 11:21:08;;;;;;;2.80;2.60;;;30.40;41.70;;;;;;6174545;28;20245;-63
2022/07/31 11:24:31;;;;;;;3.33;2.75;;;30.50;42.20;;;;;;6176427;28;20682;-62
2022/07/31 11:27:35;;;;;;;3.47;3.20;;;30.50;42.00;;;;;;6176689;28;20233;-65
2022/07/31 11:30:51;;;;;;;2.72;2.53;;;30.60;41.80;;;;;;6171954;28;20237;-64
2022/07/31 11:33:56;;;;;;;2.72;2.53;;;30.60;42.30;;;;;;6169269;28;20713;-64
2022/07/31 11:36:59;;;;;;;3.00;2.80;;;30.60;41.10;;;;;;6176369;28;20277;-64
2022/07/31 11:40:06;;;;;;;3.28;3.08;;;30.70;41.20;;;;;;6153455;28;20562;-64
2022/07/31 11:43:09;;;;;;;2.95;2.38;;;30.80;40.30;;;;;;6154087;28;20585;-64
2022/07/31 11:46:30;;;;;;;2.42;2.22;;;30.80;40.50;;;;;;6163365;28;20230;-64
2022/07/31 11:49:36;;;;;;;2.95;2.53;;;30.90;41.60;;;;;;6178865;28;20230;-64
2022/07/31 11:53:01;;;;;;;2.40;2.28;;;30.80;41.40;;;;;;6180465;28;20242;-64
2022/07/31 11:56:04;;;;;;;2.30;2.10;;;30.70;41.00;;;;;;6180936;28;20238;-64
2022/07/31 11:59:08;;;;;;;2.50;2.30;;;30.70;40.70;;;;;;6180499;28;20572;-64
2022/07/31 12:02:31;;;;;;;2.40;2.20;;;30.70;41.10;;;;;;6179852;28;20237;-64
2022/07/31 12:05:44;;;;;;;2.00;1.80;;;30.70;41.30;;;;;;6163841;28;20309;-64
2022/07/31 12:08:48;;;;;;;2.60;2.38;;;30.90;40.90;;;;;;6155999;28;20307;-63
2022/07/31 12:11:51;;;;;;;3.00;2.33;;;31.00;41.20;;;;;;6165684;28;20222;-65
2022/07/31 12:14:54;;;;;;;2.78;2.10;;;30.90;39.40;;;;;;6155738;28;20234;-64
2022/07/31 12:18:01;;;;;;;2.35;2.10;;;30.80;39.40;;;;;;6167542;28;20202;-63
2022/07/31 12:21:05;;;;;;;1.98;1.80;;;30.80;39.40;;;;;;6166848;28;20214;-63
2022/07/31 12:24:13;;;;;;;2.60;2.40;;;30.90;39.80;;;;;;6163270;28;20227;-61
2022/07/31 12:27:17;;;;;;;2.38;2.10;;;31.00;39.80;;;;;;6176999;28;20669;-62
2022/07/31 12:30:23;;;;;;;2.70;2.42;;;30.90;39.70;;;;;;6170807;28;20227;-62
2022/07/31 12:33:40;;;;;;;2.40;2.30;;;31.10;39.90;;;;;;6163103;28;20231;-62
2022/07/31 12:36:45;;;;;;;2.47;2.08;;;31.20;39.70;;;;;;6155325;28;20234;-63
2022/07/31 12:39:53;;;;;;;2.28;2.17;;;31.30;39.50;;;;;;6155606;28;20581;-63
2022/07/31 12:43:03;;;;;;;4.38;2.25;;;31.40;39.20;;;;;;6155268;28;20242;-62
2022/07/31 12:46:06;;;;;;;2.55;2.35;;;31.40;38.70;;;;;;6155488;28;20241;-63
2022/07/31 12:49:09;;;;;;;2.78;2.03;;;31.50;39.20;;;;;;6162532;28;20365;-62
2022/07/31 12:52:14;;;;;;;2.47;1.80;;;31.50;37.30;;;;;;6160885;28;20338;-62
2022/07/31 12:55:18;;;;;;;2.00;1.90;;;31.30;37.80;;;;;;6178893;28;20233;-62
2022/07/31 12:58:21;;;;;;;2.08;1.98;;;31.10;38.80;;;;;;6166447;28;20237;-62
2022/07/31 13:01:24;;;;;;;2.95;2.30;;;31.10;38.60;;;;;;6167146;28;20229;-63
2022/07/31 13:04:27;;;;;;;2.83;2.60;;;31.10;38.90;;;;;;6163611;28;20659;-62
2022/07/31 13:07:32;;;;;;;1.90;1.80;;;31.20;39.30;;;;;;6168695;28;20232;-63
2022/07/31 13:10:35;;;;;;;2.08;1.80;;;31.20;39.00;;;;;;6165534;28;20253;-63
2022/07/31 13:13:39;;;;;;;2.88;2.08;;;31.10;38.40;;;;;;6172856;28;20241;-63
2022/07/31 13:16:42;;;;;;;1.98;1.88;;;30.90;38.40;;;;;;6175307;28;20230;-63
2022/07/31 13:19:45;;;;;;;2.28;2.08;;;30.70;38.50;;;;;;6157339;28;20576;-65
2022/07/31 13:22:49;;;;;;;2.47;2.28;;;30.60;39.40;;;;;;6153996;28;20245;-65
2022/07/31 13:25:53;;;;;;;2.10;2.00;;;30.40;39.40;;;;;;6154220;28;20227;-65
2022/07/31 13:28:56;;;;;;;2.00;1.73;;;30.30;39.70;;;;;;6154257;28;20241;-65
2022/07/31 13:31:59;;;;;;;2.92;2.08;;;30.30;39.70;;;;;;6154248;28;20254;-65
2022/07/31 13:35:02;;;;;;;2.63;2.42;;;30.20;40.40;;;;;;6153784;28;20310;-65
2022/07/31 13:38:27;;;;;;;2.20;2.10;;;30.10;40.40;;;;;;6153931;28;20245;-63
2022/07/31 13:41:33;;;;;;;2.57;2.37;;;30.20;40.70;;;;;;6153960;28;20671;-64
2022/07/31 13:44:36;;;;;;;3.13;2.23;;;30.20;40.70;;;;;;6154434;28;20301;-64
2022/07/31 13:47:39;;;;;;;2.67;2.47;;;30.10;40.90;;;;;;6159100;28;20241;-63
2022/07/31 13:50:54;;;;;;;2.67;2.23;;;30.10;41.40;;;;;;6164353;28;20207;-62
2022/07/31 13:53:58;;;;;;;2.80;2.50;;;29.80;40.00;;;;;;6156303;28;20222;-61
2022/07/31 13:57:01;;;;;;;2.27;2.07;;;29.60;41.10;;;;;;6166548;28;20215;-62
2022/07/31 14:00:06;;;;;;;2.50;2.30;;;29.70;40.80;;;;;;6177534;28;20220;-64
2022/07/31 14:03:10;;;;;;;3.40;3.10;;;29.90;40.30;;;;;;6177451;28;20239;-63
2022/07/31 14:06:17;;;;;;;2.93;2.73;;;30.00;40.60;;;;;;6155790;28;20324;-64
2022/07/31 14:09:25;;;;;;;2.20;2.00;;;29.90;40.70;;;;;;6154049;28;20249;-64
2022/07/31 14:12:28;;;;;;;2.78;2.03;;;29.90;41.80;;;;;;6153552;28;20235;-63
2022/07/31 14:15:31;;;;;;;2.40;2.20;;;29.90;41.90;;;;;;6153566;28;20230;-63
2022/07/31 14:18:34;;;;;;;5.40;2.47;;;29.80;41.00;;;;;;6153707;28;20241;-64
2022/07/31 14:21:37;;;;;;;2.80;2.60;;;29.80;42.60;;;;;;6153235;28;20230;-62
2022/07/31 14:24:53;;;;;;;2.27;2.07;;;29.80;41.20;;;;;;6153375;28;20646;-64
2022/07/31 14:27:56;;;;;;;2.93;2.70;;;29.70;40.90;;;;;;6152941;28;20249;-63
2022/07/31 14:30:59;;;;;;;2.10;2.00;;;29.60;41.90;;;;;;6153427;28;20242;-63
2022/07/31 14:34:03;;;;;;;2.70;2.50;;;29.40;41.40;;;;;;6152720;28;20313;-65
2022/07/31 14:37:07;;;;;;;2.70;2.50;;;29.20;42.00;;;;;;6152760;28;20245;-63
2022/07/31 14:40:12;;;;;;;2.60;2.40;;;29.10;42.70;;;;;;6153183;28;20261;-64
2022/07/31 14:43:16;;;;;;;2.70;2.47;;;29.10;43.30;;;;;;6152924;28;20245;-64
2022/07/31 14:46:19;;;;;;;2.43;2.23;;;29.00;42.60;;;;;;6152944;28;20240;-63
2022/07/31 14:49:22;;;;;;;2.50;2.40;;;29.10;43.20;;;;;;6152954;28;20240;-63
2022/07/31 14:52:25;;;;;;;2.93;2.50;;;29.30;43.30;;;;;;6152719;28;20608;-64
2022/07/31 14:55:30;;;;;;;2.57;2.40;;;29.40;42.60;;;;;;6148308;28;20553;-63
2022/07/31 14:58:33;;;;;;;2.78;2.45;;;29.50;43.10;;;;;;6153007;28;20234;-63
2022/07/31 15:01:56;;;;;;;2.50;2.30;;;29.60;43.00;;;;;;6152749;28;20235;-63
2022/07/31 15:04:59;;;;;;;3.47;2.70;;;29.40;43.40;;;;;;6152433;28;20536;-63
2022/07/31 15:08:23;;;;;;;3.00;2.80;;;29.20;44.10;;;;;;6152807;28;20255;-63
2022/07/31 15:11:27;;;;;;;3.47;3.17;;;29.00;43.80;;;;;;6152459;28;20579;-63
2022/07/31 15:14:50;;;;;;;3.33;2.73;;;28.80;44.80;;;;;;6152563;28;20223;-64
2022/07/31 15:17:53;;;;;;;3.40;3.13;;;28.60;45.00;;;;;;6152566;28;20211;-64
2022/07/31 15:20:57;;;;;;;3.30;3.10;;;28.70;45.60;;;;;;6159286;28;20208;-62
2022/07/31 15:24:00;;;;;;;2.73;2.60;;;28.70;45.00;;;;;;6177618;28;20868;-62
2022/07/31 15:27:04;;;;;;;4.30;3.90;;;28.70;45.50;;;;;;6181319;28;20206;-63
2022/07/31 15:30:09;;;;;;;3.40;3.10;;;28.70;45.40;;;;;;6181384;28;20361;-63
2022/07/31 15:33:12;;;;;;;3.43;3.13;;;28.80;45.30;;;;;;6180957;28;20244;-63
2022/07/31 15:36:16;;;;;;;3.47;3.17;;;28.70;45.00;;;;;;6180452;28;20229;-64
2022/07/31 15:39:19;;;;;;;3.50;3.20;;;28.50;45.40;;;;;;6180661;28;20230;-62
2022/07/31 15:42:23;;;;;;;3.20;2.90;;;28.30;45.90;;;;;;6180610;28;20237;-63
2022/07/31 15:45:26;;;;;;;3.63;3.33;;;28.30;46.40;;;;;;6180685;28;20244;-63
2022/07/31 15:48:30;;;;;;;4.90;3.70;;;28.10;46.90;;;;;;6180673;28;20547;-62
2022/07/31 15:51:33;;;;;;;3.80;3.40;;;28.00;47.10;;;;;;6180448;28;20240;-62
2022/07/31 15:54:36;;;;;;;4.87;3.40;;;28.00;47.10;;;;;;6180753;28;20352;-62
2022/07/31 15:57:41;;;;;;;3.13;2.93;;;28.10;47.70;;;;;;6175712;28;20248;-62
2022/07/31 16:00:44;;;;;;;3.13;2.93;;;28.30;47.50;;;;;;6180658;28;20546;-62
2022/07/31 16:03:47;;;;;;;4.50;2.70;;;28.40;47.80;;;;;;6178505;28;20226;-62
2022/07/31 16:06:55;;;;;;;3.80;3.40;;;28.40;46.80;;;;;;6155362;28;20237;-61
2022/07/31 16:10:00;;;;;;;3.37;3.07;;;28.30;47.10;;;;;;6156079;28;20234;-62
2022/07/31 16:13:20;;;;;;;4.20;2.87;;;28.40;47.30;;;;;;6155889;28;20318;-61